Time;durP1;ratioP1;P1;durP2;ratioP2;P2;SDS_P1;SDS_P2;PMS_P1;PMS_P2;Temp;Humidity;BMP_temperature;BMP_pressure;BME280_temperature;BME280_humidity;BME280_pressure;Samples;Min_cycle;Max_cycle;Signal;HPM_P1;HPM_P2
2023/08/31 00:01:55;;;;;;;9.20;8.40;;;14.70;99.90;;;;;;5030590;28;21013;-58
2023/08/31 00:04:23;;;;;;;10.40;9.43;;;14.70;99.90;;;;;;5037222;28;20987;-57
2023/08/31 00:06:51;;;;;;;9.00;8.20;;;14.70;99.90;;;;;;5037439;28;20495;-58
2023/08/31 00:09:19;;;;;;;9.67;8.60;;;14.70;99.90;;;;;;5029236;28;20577;-57
2023/08/31 00:11:47;;;;;;;10.30;9.40;;;14.70;99.90;;;;;;5040083;28;20928;-57
2023/08/31 00:14:15;;;;;;;10.40;9.40;;;14.60;99.90;;;;;;5041168;28;20494;-57
2023/08/31 00:16:45;;;;;;;8.43;7.73;;;14.60;99.90;;;;;;5031009;28;20597;-58
2023/08/31 00:19:14;;;;;;;9.43;8.63;;;14.50;99.90;;;;;;5034823;28;20532;-58
2023/08/31 00:21:43;;;;;;;9.60;8.70;;;14.50;99.90;;;;;;5040965;28;20470;-57
2023/08/31 00:24:12;;;;;;;8.47;7.67;;;14.50;99.90;;;;;;5034819;28;20529;-58
2023/08/31 00:26:40;;;;;;;8.53;7.73;;;14.50;99.90;;;;;;5040460;28;20489;-58
2023/08/31 00:29:10;;;;;;;8.93;8.13;;;14.50;99.90;;;;;;5039813;28;20489;-58
2023/08/31 00:31:39;;;;;;;7.57;6.97;;;14.50;99.90;;;;;;5043330;28;20533;-58
2023/08/31 00:34:10;;;;;;;8.70;7.90;;;14.50;99.90;;;;;;5039140;28;21152;-56
2023/08/31 00:36:39;;;;;;;9.10;8.30;;;14.50;99.90;;;;;;5036826;28;20606;-57
2023/08/31 00:39:08;;;;;;;8.23;7.30;;;14.40;99.90;;;;;;5039569;28;20561;-58
2023/08/31 00:41:36;;;;;;;8.80;8.00;;;14.40;99.90;;;;;;5041896;28;20474;-56
2023/08/31 00:44:05;;;;;;;8.60;7.70;;;14.40;99.90;;;;;;5034053;28;21077;-58
2023/08/31 00:46:33;;;;;;;9.93;7.53;;;14.40;99.90;;;;;;5041318;28;20494;-58
2023/08/31 00:49:03;;;;;;;7.90;7.10;;;14.40;99.90;;;;;;5034181;28;20469;-56
2023/08/31 00:51:33;;;;;;;7.97;7.30;;;14.30;99.90;;;;;;5033693;28;20501;-57
2023/08/31 00:54:02;;;;;;;7.93;7.23;;;14.30;99.90;;;;;;5029106;28;20579;-56
2023/08/31 00:56:30;;;;;;;7.20;6.60;;;14.30;99.90;;;;;;5033758;28;20593;-58
2023/08/31 00:58:58;;;;;;;8.00;7.30;;;14.30;99.90;;;;;;5035142;28;20496;-56
2023/08/31 01:01:33;;;;;;;8.40;7.60;;;14.20;99.90;;;;;;5035617;28;20478;-58
2023/08/31 01:04:12;;;;;;;7.60;6.90;;;14.30;99.90;;;;;;5032683;28;20500;-57
2023/08/31 01:06:54;;;;;;;8.20;7.47;;;14.30;99.90;;;;;;5034802;28;20497;-56
2023/08/31 01:09:32;;;;;;;8.20;7.40;;;14.20;99.90;;;;;;5037916;28;20567;-57
2023/08/31 01:12:04;;;;;;;8.73;8.03;;;14.20;99.90;;;;;;5035771;28;21302;-57
2023/08/31 01:14:39;;;;;;;8.03;7.23;;;14.10;99.90;;;;;;5033974;28;20543;-58
2023/08/31 01:17:10;;;;;;;8.10;7.30;;;14.10;99.90;;;;;;5034520;28;20513;-57
2023/08/31 01:19:49;;;;;;;7.97;7.27;;;14.00;99.90;;;;;;5035894;28;20548;-56
2023/08/31 01:22:28;;;;;;;8.30;7.50;;;14.00;99.90;;;;;;5034577;28;20466;-58
2023/08/31 01:25:01;;;;;;;8.77;7.87;;;13.90;99.90;;;;;;5030373;28;20477;-57
2023/08/31 01:27:30;;;;;;;7.87;7.17;;;13.90;99.90;;;;;;5034699;28;20599;-57
2023/08/31 01:29:58;;;;;;;8.00;7.20;;;13.90;99.90;;;;;;5038989;28;20553;-58
2023/08/31 01:32:26;;;;;;;8.00;7.30;;;13.90;99.90;;;;;;5034689;28;20471;-57
2023/08/31 01:34:57;;;;;;;7.70;7.03;;;13.90;99.90;;;;;;5030477;28;20495;-58
2023/08/31 01:37:32;;;;;;;7.87;7.07;;;13.90;99.90;;;;;;5034204;28;21023;-57
2023/08/31 01:40:07;;;;;;;7.53;6.83;;;13.90;99.90;;;;;;5035570;28;20474;-57
2023/08/31 01:42:36;;;;;;;7.70;7.00;;;13.80;99.90;;;;;;5031193;28;20561;-57
2023/08/31 01:45:06;;;;;;;7.47;6.80;;;13.80;99.90;;;;;;5040537;28;20513;-57
2023/08/31 01:47:34;;;;;;;7.30;6.60;;;13.70;99.90;;;;;;5043376;28;20487;-57
2023/08/31 01:50:02;;;;;;;7.30;6.60;;;13.70;99.90;;;;;;5036965;28;20557;-58
2023/08/31 01:52:30;;;;;;;7.27;6.53;;;13.70;99.90;;;;;;5030181;28;20477;-57
2023/08/31 01:54:58;;;;;;;7.60;6.87;;;13.70;99.90;;;;;;5027981;28;20586;-58
2023/08/31 01:57:28;;;;;;;8.27;7.37;;;13.60;99.90;;;;;;5030926;28;20950;-58
2023/08/31 01:59:56;;;;;;;7.13;6.53;;;13.60;99.90;;;;;;5032563;28;20466;-57
2023/08/31 02:02:24;;;;;;;7.50;6.90;;;13.60;99.90;;;;;;5030513;28;20477;-57
2023/08/31 02:04:52;;;;;;;8.13;7.40;;;13.50;99.90;;;;;;5030560;28;21080;-57
2023/08/31 02:07:20;;;;;;;8.40;7.50;;;13.50;99.90;;;;;;5037061;28;20986;-57
2023/08/31 02:09:51;;;;;;;7.67;6.50;;;13.50;99.90;;;;;;5042699;28;20894;-57
2023/08/31 02:12:19;;;;;;;8.43;7.20;;;13.50;99.90;;;;;;5039968;28;20486;-57
2023/08/31 02:14:49;;;;;;;8.77;7.50;;;13.50;99.90;;;;;;5040154;28;20853;-57
2023/08/31 02:17:17;;;;;;;8.47;7.77;;;13.40;99.90;;;;;;5037767;28;20536;-57
2023/08/31 02:19:45;;;;;;;7.57;6.87;;;13.40;99.90;;;;;;5034412;28;20844;-56
2023/08/31 02:22:13;;;;;;;8.00;7.20;;;13.40;99.90;;;;;;5033954;28;20474;-57
2023/08/31 02:24:41;;;;;;;11.90;7.10;;;13.40;99.90;;;;;;5038233;28;20577;-57
2023/08/31 02:27:09;;;;;;;7.77;6.97;;;13.40;99.90;;;;;;5040350;28;21004;-56
2023/08/31 02:29:37;;;;;;;8.37;7.67;;;13.30;99.90;;;;;;5032392;28;20521;-57
2023/08/31 02:32:07;;;;;;;8.30;7.50;;;13.30;99.90;;;;;;5040275;28;21038;-57
2023/08/31 02:37:34;;;;;;;7.70;6.97;;;13.30;99.90;;;;;;5023653;28;20485;-57
2023/08/31 02:40:55;;;;;;;8.27;7.17;;;13.30;99.90;;;;;;5019171;28;20557;-57
2023/08/31 02:43:25;;;;;;;8.67;7.77;;;13.20;99.90;;;;;;5007645;28;20997;-58
2023/08/31 02:46:00;;;;;;;7.30;6.60;;;13.20;99.90;;;;;;5039245;28;20993;-57
2023/08/31 02:48:29;;;;;;;7.10;6.50;;;13.20;99.90;;;;;;5038246;28;20526;-56
2023/08/31 02:51:00;;;;;;;9.73;6.60;;;13.10;99.90;;;;;;5024244;28;21001;-60
2023/08/31 02:53:28;;;;;;;6.90;6.30;;;13.10;99.90;;;;;;5024076;28;20524;-60
2023/08/31 02:55:59;;;;;;;8.40;7.63;;;13.10;99.90;;;;;;5024227;28;20552;-61
2023/08/31 02:58:27;;;;;;;8.93;6.93;;;13.10;99.90;;;;;;5023745;28;20900;-59
2023/08/31 03:00:55;;;;;;;6.87;6.20;;;13.10;99.90;;;;;;5029304;28;20478;-60
2023/08/31 03:03:23;;;;;;;6.87;6.27;;;13.00;99.90;;;;;;5033101;28;20988;-59
2023/08/31 03:05:57;;;;;;;6.77;6.17;;;13.00;99.90;;;;;;5021981;28;21114;-58
2023/08/31 03:08:24;;;;;;;7.17;6.57;;;13.00;99.90;;;;;;5031866;28;20509;-60
2023/08/31 03:10:53;;;;;;;6.50;5.90;;;13.10;99.90;;;;;;5034523;28;20489;-60
2023/08/31 03:13:21;;;;;;;6.70;6.10;;;13.00;99.90;;;;;;5031229;28;20568;-59
2023/08/31 03:15:49;;;;;;;6.70;6.10;;;13.00;99.90;;;;;;5033550;28;20819;-59
2023/08/31 03:18:17;;;;;;;7.03;6.33;;;13.00;99.90;;;;;;5036800;28;20536;-60
2023/08/31 03:20:45;;;;;;;6.30;5.70;;;13.00;99.90;;;;;;5034655;28;21033;-60
2023/08/31 03:23:14;;;;;;;6.90;6.20;;;12.90;99.90;;;;;;5034285;28;20565;-60
2023/08/31 03:25:43;;;;;;;7.90;7.20;;;12.90;99.90;;;;;;5033263;28;20581;-61
2023/08/31 03:28:11;;;;;;;7.50;6.27;;;12.90;99.90;;;;;;5037994;28;20474;-60
2023/08/31 03:30:39;;;;;;;6.43;5.83;;;12.90;99.90;;;;;;5035268;28;20609;-61
2023/08/31 03:33:07;;;;;;;6.53;5.93;;;12.80;99.90;;;;;;5030874;28;20473;-61
2023/08/31 03:35:35;;;;;;;6.87;6.03;;;12.80;99.90;;;;;;5037018;28;20491;-60
2023/08/31 03:38:03;;;;;;;6.43;5.80;;;12.80;99.90;;;;;;5035607;28;21095;-61
2023/08/31 03:40:33;;;;;;;6.00;5.27;;;12.80;99.90;;;;;;5038733;28;20486;-60
2023/08/31 03:43:01;;;;;;;6.47;5.37;;;12.80;99.90;;;;;;5038128;28;20937;-59
2023/08/31 03:45:29;;;;;;;5.87;5.30;;;12.70;99.90;;;;;;5032917;28;20490;-62
2023/08/31 03:47:57;;;;;;;5.97;5.47;;;12.60;99.90;;;;;;5035608;28;20664;-59
2023/08/31 03:50:25;;;;;;;6.43;5.83;;;12.60;99.90;;;;;;5035285;28;20706;-58
2023/08/31 03:52:53;;;;;;;5.43;4.93;;;12.50;99.90;;;;;;5036122;28;20561;-62
2023/08/31 03:55:21;;;;;;;5.80;5.23;;;12.50;99.90;;;;;;5027679;28;20570;-60
2023/08/31 03:57:50;;;;;;;5.60;5.10;;;12.50;99.90;;;;;;5039570;28;20489;-59
2023/08/31 04:00:18;;;;;;;5.10;4.67;;;12.50;99.90;;;;;;5041948;28;21010;-60
2023/08/31 04:02:46;;;;;;;5.13;4.63;;;12.50;99.90;;;;;;5044309;28;20919;-58
2023/08/31 04:05:15;;;;;;;6.83;4.97;;;12.60;99.90;;;;;;5032797;28;20583;-61
2023/08/31 04:07:44;;;;;;;5.00;3.97;;;12.60;99.90;;;;;;5036555;28;21059;-62
2023/08/31 04:10:12;;;;;;;6.10;5.13;;;12.50;99.90;;;;;;5027625;28;20494;-62
2023/08/31 04:12:42;;;;;;;5.90;5.27;;;12.50;99.90;;;;;;5033989;28;20587;-62
2023/08/31 04:15:13;;;;;;;5.57;4.90;;;12.40;99.90;;;;;;5039821;28;20516;-59
2023/08/31 04:17:41;;;;;;;4.87;3.93;;;12.40;99.90;;;;;;5039237;28;20604;-60
2023/08/31 04:20:10;;;;;;;4.90;4.50;;;12.30;99.90;;;;;;5045810;28;21020;-59
2023/08/31 04:22:38;;;;;;;5.20;4.40;;;12.30;99.90;;;;;;5039067;28;20502;-59
2023/08/31 04:25:07;;;;;;;4.87;4.37;;;12.30;99.90;;;;;;5042074;28;20581;-59
2023/08/31 04:27:35;;;;;;;5.13;4.40;;;12.30;99.90;;;;;;5034550;28;20933;-58
2023/08/31 04:30:03;;;;;;;4.90;4.40;;;12.30;99.90;;;;;;5037956;28;21192;-58
2023/08/31 04:32:33;;;;;;;8.70;4.60;;;12.20;99.90;;;;;;5034947;28;20471;-59
2023/08/31 04:35:01;;;;;;;4.93;4.40;;;12.20;99.90;;;;;;5033868;28;20494;-60
2023/08/31 04:37:29;;;;;;;4.40;4.00;;;12.30;99.90;;;;;;5027145;28;20995;-62
2023/08/31 04:39:57;;;;;;;4.63;4.20;;;12.30;99.90;;;;;;5020553;28;20486;-59
2023/08/31 04:42:25;;;;;;;7.07;5.00;;;12.30;99.90;;;;;;5020089;28;21075;-60
2023/08/31 04:44:53;;;;;;;6.80;4.80;;;12.30;99.90;;;;;;5027501;28;20498;-60
2023/08/31 04:47:21;;;;;;;4.87;4.40;;;12.30;99.90;;;;;;5032702;28;20500;-60
2023/08/31 04:49:51;;;;;;;6.20;4.70;;;12.30;99.90;;;;;;5029873;28;21333;-59
2023/08/31 04:52:19;;;;;;;5.47;4.90;;;12.30;99.90;;;;;;5029920;28;20987;-60
2023/08/31 04:54:47;;;;;;;5.57;4.27;;;12.30;99.90;;;;;;5024215;28;21261;-59
2023/08/31 04:57:15;;;;;;;6.10;4.73;;;12.30;99.90;;;;;;5034336;28;20541;-61
2023/08/31 04:59:43;;;;;;;6.07;5.40;;;12.40;99.90;;;;;;5027816;28;21002;-60
2023/08/31 05:02:11;;;;;;;6.03;5.43;;;12.30;99.90;;;;;;5032917;28;20470;-59
2023/08/31 05:04:39;;;;;;;5.93;5.10;;;12.30;99.90;;;;;;5035722;28;20494;-60
2023/08/31 05:07:08;;;;;;;6.20;5.00;;;12.30;99.90;;;;;;5031169;28;20578;-60
2023/08/31 05:09:36;;;;;;;5.40;4.70;;;12.30;99.90;;;;;;5028870;28;20595;-60
2023/08/31 05:12:05;;;;;;;5.20;4.70;;;12.30;99.90;;;;;;5023109;28;20590;-60
2023/08/31 05:14:36;;;;;;;6.50;4.50;;;12.40;99.90;;;;;;5019069;28;20494;-62
2023/08/31 05:17:05;;;;;;;8.13;4.93;;;12.40;99.90;;;;;;5031110;28;20463;-60
2023/08/31 05:19:33;;;;;;;5.80;4.83;;;12.40;99.90;;;;;;5032214;28;20477;-60
2023/08/31 05:22:01;;;;;;;6.43;5.80;;;12.40;99.90;;;;;;5036434;28;20498;-61
2023/08/31 05:24:30;;;;;;;7.13;5.43;;;12.40;99.90;;;;;;5033663;28;20577;-62
2023/08/31 05:26:58;;;;;;;8.10;5.50;;;12.40;99.90;;;;;;5028977;28;20550;-57
2023/08/31 05:29:27;;;;;;;6.67;5.13;;;12.40;99.90;;;;;;5035702;28;20485;-57
2023/08/31 05:31:55;;;;;;;5.63;5.00;;;12.40;99.90;;;;;;5030117;28;20550;-56
2023/08/31 05:34:23;;;;;;;7.53;4.70;;;12.40;99.90;;;;;;5036339;28;20579;-57
2023/08/31 05:36:51;;;;;;;5.17;4.63;;;12.40;99.90;;;;;;5027279;28;20493;-57
2023/08/31 05:39:19;;;;;;;5.10;4.60;;;12.40;99.90;;;;;;5030923;28;20940;-60
2023/08/31 05:41:48;;;;;;;6.20;5.20;;;12.40;99.90;;;;;;5032829;28;20641;-57
2023/08/31 05:44:17;;;;;;;5.67;5.07;;;12.40;99.90;;;;;;5030571;28;20847;-58
2023/08/31 05:46:45;;;;;;;6.03;4.80;;;12.40;99.90;;;;;;5033866;28;20551;-57
2023/08/31 05:49:13;;;;;;;5.63;5.07;;;12.50;99.90;;;;;;5032082;28;20984;-58
2023/08/31 05:51:41;;;;;;;6.67;5.20;;;12.50;99.90;;;;;;5032199;28;20809;-56
2023/08/31 05:54:11;;;;;;;5.43;4.90;;;12.60;99.90;;;;;;5028400;28;21317;-59
2023/08/31 05:56:40;;;;;;;4.40;4.00;;;12.60;99.90;;;;;;5028034;28;20852;-59
2023/08/31 05:59:09;;;;;;;5.53;5.03;;;12.60;99.90;;;;;;5043916;28;20481;-59
2023/08/31 06:01:37;;;;;;;6.37;4.50;;;12.70;99.90;;;;;;5032930;28;20466;-60
2023/08/31 06:04:06;;;;;;;5.50;4.50;;;12.70;99.90;;;;;;5043225;28;20587;-60
2023/08/31 06:06:34;;;;;;;5.73;4.57;;;12.70;99.90;;;;;;5037249;28;20486;-60
2023/08/31 06:09:02;;;;;;;5.87;4.73;;;12.70;99.90;;;;;;5039839;28;21443;-59
2023/08/31 06:11:30;;;;;;;5.50;4.27;;;12.70;99.90;;;;;;5035795;28;21022;-58
2023/08/31 06:13:58;;;;;;;7.10;4.33;;;12.70;99.90;;;;;;5032659;28;20490;-59
2023/08/31 06:16:27;;;;;;;6.80;5.17;;;12.70;99.90;;;;;;5042227;28;20589;-60
2023/08/31 06:18:56;;;;;;;5.33;4.40;;;12.70;99.90;;;;;;5041463;28;20473;-59
2023/08/31 06:21:24;;;;;;;6.90;4.70;;;12.80;99.90;;;;;;5031893;28;20547;-60
2023/08/31 06:23:52;;;;;;;6.53;4.40;;;12.80;99.90;;;;;;5039976;28;20565;-59
2023/08/31 06:26:20;;;;;;;5.40;4.13;;;12.80;99.90;;;;;;5028938;28;20490;-61
2023/08/31 06:28:48;;;;;;;5.67;4.10;;;12.80;99.90;;;;;;5022319;28;20988;-60
2023/08/31 06:31:16;;;;;;;6.43;4.27;;;12.90;99.90;;;;;;5030558;28;20832;-59
2023/08/31 06:33:45;;;;;;;5.17;4.67;;;12.90;99.90;;;;;;5035057;28;21090;-60
2023/08/31 06:36:13;;;;;;;4.63;3.30;;;12.90;99.90;;;;;;5037800;28;20671;-61
2023/08/31 06:38:41;;;;;;;6.57;4.23;;;13.00;99.90;;;;;;5035059;28;20557;-61
2023/08/31 06:41:09;;;;;;;5.50;4.47;;;13.00;99.90;;;;;;5031081;28;20846;-62
2023/08/31 06:43:37;;;;;;;4.57;4.03;;;13.10;99.90;;;;;;5037197;28;20466;-60
2023/08/31 06:46:05;;;;;;;4.70;4.20;;;13.10;99.90;;;;;;5040474;28;20487;-60
2023/08/31 06:48:53;;;;;;;5.27;4.33;;;13.10;99.90;;;;;;5033219;28;20847;-60
2023/08/31 06:51:21;;;;;;;4.60;4.20;;;13.20;99.90;;;;;;5037889;28;20581;-60
2023/08/31 06:53:52;;;;;;;5.20;3.83;;;13.20;99.90;;;;;;5040671;28;20470;-60
2023/08/31 06:56:20;;;;;;;5.27;4.60;;;13.30;99.90;;;;;;5037655;28;20494;-60
2023/08/31 06:58:48;;;;;;;5.47;4.50;;;13.40;99.90;;;;;;5039268;28;20547;-62
2023/08/31 07:01:16;;;;;;;7.47;4.47;;;13.40;99.90;;;;;;5041358;28;20479;-57
2023/08/31 07:03:44;;;;;;;4.00;3.70;;;13.40;99.90;;;;;;5030879;28;20504;-57
2023/08/31 07:06:13;;;;;;;4.80;4.13;;;13.40;99.90;;;;;;5027436;28;20489;-58
2023/08/31 07:08:45;;;;;;;3.73;3.30;;;13.50;99.90;;;;;;5036768;28;20478;-57
2023/08/31 07:11:13;;;;;;;3.93;3.53;;;13.40;99.90;;;;;;5037865;28;20512;-57
2023/08/31 07:13:41;;;;;;;4.03;3.40;;;13.50;99.90;;;;;;5041543;28;20565;-57
2023/08/31 07:16:09;;;;;;;3.83;2.77;;;13.50;99.90;;;;;;5038669;28;20563;-57
2023/08/31 07:18:37;;;;;;;3.70;3.10;;;13.60;99.90;;;;;;5033677;28;20528;-57
2023/08/31 07:21:06;;;;;;;3.87;3.07;;;13.70;99.90;;;;;;5026879;28;20473;-57
2023/08/31 07:23:35;;;;;;;3.23;2.93;;;13.70;99.90;;;;;;5030234;28;21608;-57
2023/08/31 07:26:04;;;;;;;3.63;3.33;;;13.80;99.90;;;;;;5037738;28;20529;-58
2023/08/31 07:28:32;;;;;;;2.97;2.67;;;13.80;99.90;;;;;;5039979;28;20541;-57
2023/08/31 07:31:04;;;;;;;2.90;2.70;;;13.80;99.90;;;;;;5028373;28;20586;-58
2023/08/31 07:33:34;;;;;;;5.87;3.17;;;13.80;99.90;;;;;;5039560;28;22018;-57
2023/08/31 07:36:05;;;;;;;2.90;2.70;;;13.90;99.90;;;;;;5038914;28;20807;-58
2023/08/31 07:38:35;;;;;;;2.60;2.40;;;14.00;99.90;;;;;;5039239;28;20507;-58
2023/08/31 07:41:04;;;;;;;3.83;2.47;;;14.00;99.90;;;;;;5039044;28;20968;-57
2023/08/31 07:43:32;;;;;;;2.60;2.40;;;14.10;99.90;;;;;;5039598;28;20479;-58
2023/08/31 07:46:00;;;;;;;3.13;2.20;;;14.20;99.90;;;;;;5044189;28;20555;-57
2023/08/31 07:48:28;;;;;;;4.10;2.50;;;14.20;99.90;;;;;;5040576;28;20498;-57
2023/08/31 07:50:56;;;;;;;2.43;2.23;;;14.20;99.90;;;;;;5039752;28;20589;-56
2023/08/31 07:53:24;;;;;;;4.03;2.47;;;14.30;99.90;;;;;;5037157;28;20466;-58
2023/08/31 07:55:57;;;;;;;3.23;2.40;;;14.30;99.90;;;;;;5039713;28;20498;-57
2023/08/31 07:58:26;;;;;;;3.73;2.37;;;14.40;99.90;;;;;;5034871;28;20557;-57
2023/08/31 08:00:54;;;;;;;2.40;2.20;;;14.50;99.90;;;;;;5044074;28;20521;-57
2023/08/31 08:03:23;;;;;;;2.77;2.40;;;14.60;99.90;;;;;;5042868;28;20575;-57
2023/08/31 08:05:51;;;;;;;2.33;2.13;;;14.60;99.90;;;;;;5039994;28;20548;-57
2023/08/31 08:08:19;;;;;;;2.77;2.20;;;14.70;99.90;;;;;;5039848;28;20469;-57
2023/08/31 08:10:47;;;;;;;2.60;2.40;;;14.70;99.90;;;;;;5039870;28;20986;-57
2023/08/31 08:13:17;;;;;;;3.17;2.40;;;14.70;99.90;;;;;;5041486;28;20473;-58
2023/08/31 08:15:46;;;;;;;3.87;2.20;;;14.90;99.90;;;;;;5040833;28;20514;-58
2023/08/31 08:18:14;;;;;;;3.80;3.07;;;14.90;99.90;;;;;;5033410;28;20979;-56
2023/08/31 08:20:42;;;;;;;3.13;2.83;;;14.90;99.90;;;;;;5032847;28;20470;-56
2023/08/31 08:23:10;;;;;;;3.70;3.07;;;15.00;99.90;;;;;;5039000;28;20474;-58
2023/08/31 08:25:39;;;;;;;3.70;3.40;;;15.10;99.90;;;;;;5039916;28;21053;-58
2023/08/31 08:28:07;;;;;;;3.73;3.23;;;15.20;99.90;;;;;;5032656;28;20498;-57
2023/08/31 08:30:36;;;;;;;4.07;3.50;;;15.20;99.90;;;;;;5032415;28;20482;-56
2023/08/31 08:33:05;;;;;;;4.13;3.83;;;15.20;99.90;;;;;;5037646;28;20558;-56
2023/08/31 08:35:33;;;;;;;3.80;3.50;;;15.20;99.90;;;;;;5039755;28;20533;-57
2023/08/31 08:38:01;;;;;;;4.83;4.37;;;15.20;99.90;;;;;;5026195;28;20565;-56
2023/08/31 08:40:32;;;;;;;3.30;3.00;;;15.20;99.90;;;;;;5035973;28;20655;-56
2023/08/31 08:43:01;;;;;;;3.00;2.80;;;15.20;99.90;;;;;;5036743;28;20469;-57
2023/08/31 08:45:37;;;;;;;3.70;2.87;;;15.20;99.90;;;;;;5037226;28;20486;-58
2023/08/31 08:48:08;;;;;;;6.50;2.87;;;15.20;99.90;;;;;;5038196;28;20527;-57
2023/08/31 08:50:38;;;;;;;3.80;2.90;;;15.20;99.90;;;;;;5039594;28;20469;-57
2023/08/31 08:53:07;;;;;;;2.87;2.67;;;15.30;99.90;;;;;;5039294;28;20490;-57
2023/08/31 08:55:35;;;;;;;3.23;2.40;;;15.30;99.90;;;;;;5041446;28;20564;-58
2023/08/31 08:58:04;;;;;;;2.53;2.33;;;15.40;99.90;;;;;;5035408;28;21032;-57
2023/08/31 09:00:33;;;;;;;3.53;2.60;;;15.60;99.90;;;;;;5036641;28;20527;-58
2023/08/31 09:03:02;;;;;;;3.53;2.60;;;15.60;99.90;;;;;;5035445;28;20465;-58
2023/08/31 09:05:34;;;;;;;3.00;2.70;;;15.70;99.90;;;;;;5036399;28;20489;-57
2023/08/31 09:08:03;;;;;;;4.97;3.30;;;15.60;99.90;;;;;;5037613;28;20559;-57
2023/08/31 09:10:38;;;;;;;4.57;3.00;;;15.50;99.90;;;;;;5038511;28;20470;-57
2023/08/31 09:13:08;;;;;;;3.67;3.33;;;15.50;99.90;;;;;;5039385;28;20587;-58
2023/08/31 09:15:44;;;;;;;3.50;3.20;;;15.60;99.90;;;;;;5042804;28;22186;-57
2023/08/31 09:18:17;;;;;;;4.13;3.70;;;15.60;99.90;;;;;;5039257;28;20474;-56
2023/08/31 09:20:49;;;;;;;2.93;2.73;;;15.60;99.90;;;;;;5032262;28;20503;-58
2023/08/31 09:23:17;;;;;;;4.97;3.13;;;15.60;99.90;;;;;;5044296;28;20466;-58
2023/08/31 09:25:48;;;;;;;3.40;3.10;;;15.70;99.90;;;;;;5032682;28;20739;-58
2023/08/31 09:28:17;;;;;;;3.67;2.80;;;15.70;99.90;;;;;;5036296;28;20482;-58
2023/08/31 09:30:48;;;;;;;3.43;3.13;;;15.70;99.90;;;;;;5036555;28;20528;-56
2023/08/31 09:33:17;;;;;;;5.67;4.30;;;15.60;99.90;;;;;;5035918;28;20490;-57
2023/08/31 09:35:53;;;;;;;4.73;4.20;;;15.50;99.90;;;;;;5042642;28;20490;-58
2023/08/31 09:38:21;;;;;;;4.50;4.10;;;15.40;99.90;;;;;;5044019;28;20501;-58
2023/08/31 09:40:49;;;;;;;4.57;4.17;;;15.40;99.90;;;;;;5036759;28;20578;-58
2023/08/31 09:43:21;;;;;;;4.27;3.67;;;15.30;99.90;;;;;;5044657;28;20544;-58
2023/08/31 09:45:50;;;;;;;4.10;3.70;;;15.30;99.90;;;;;;5043385;28;20498;-58
2023/08/31 09:48:20;;;;;;;5.00;4.50;;;15.20;99.90;;;;;;5041421;28;20467;-57
2023/08/31 09:50:53;;;;;;;4.70;4.10;;;15.30;99.90;;;;;;5039219;28;20803;-58
2023/08/31 09:53:22;;;;;;;4.70;4.20;;;15.40;99.90;;;;;;5045753;28;20501;-57
2023/08/31 09:55:51;;;;;;;4.40;4.10;;;15.40;99.90;;;;;;5043269;28;20582;-57
2023/08/31 09:58:21;;;;;;;4.43;4.03;;;15.50;99.90;;;;;;5043235;28;20561;-58
2023/08/31 10:00:51;;;;;;;4.47;4.17;;;15.50;99.90;;;;;;5039216;28;20474;-57
2023/08/31 10:03:21;;;;;;;10.33;4.43;;;15.60;99.90;;;;;;5042358;28;20620;-57
2023/08/31 10:05:51;;;;;;;3.70;3.40;;;15.70;99.90;;;;;;5041204;28;20515;-58
2023/08/31 10:08:20;;;;;;;4.60;3.67;;;15.80;99.90;;;;;;5040177;28;20473;-58
2023/08/31 10:10:48;;;;;;;3.43;3.23;;;15.80;99.90;;;;;;5033324;28;20498;-58
2023/08/31 10:13:17;;;;;;;6.90;3.93;;;15.90;99.90;;;;;;5036425;28;20486;-58
2023/08/31 10:15:47;;;;;;;3.53;3.33;;;15.90;99.90;;;;;;5034573;28;20514;-58
2023/08/31 10:18:16;;;;;;;3.47;3.20;;;16.10;99.90;;;;;;5035892;28;20502;-57
2023/08/31 10:20:45;;;;;;;3.80;3.50;;;16.30;99.90;;;;;;5036741;28;20559;-58
2023/08/31 10:23:15;;;;;;;4.60;4.20;;;16.40;99.90;;;;;;5034544;28;20552;-57
2023/08/31 10:26:03;;;;;;;5.07;4.50;;;16.50;99.90;;;;;;5039477;28;20589;-58
2023/08/31 10:28:40;;;;;;;4.53;4.13;;;16.50;99.90;;;;;;5033762;28;20471;-56
2023/08/31 10:31:10;;;;;;;4.70;4.30;;;16.50;99.90;;;;;;5034400;28;20470;-58
2023/08/31 10:33:42;;;;;;;4.73;4.33;;;16.50;99.90;;;;;;5033523;28;20498;-56
2023/08/31 10:36:13;;;;;;;6.27;4.70;;;16.60;99.90;;;;;;5027325;28;20518;-58
2023/08/31 10:38:45;;;;;;;4.17;3.87;;;16.70;99.90;;;;;;5033199;28;20951;-58
2023/08/31 10:41:20;;;;;;;4.40;4.10;;;16.80;99.90;;;;;;5040131;28;20941;-58
2023/08/31 10:43:50;;;;;;;4.07;3.80;;;16.80;99.90;;;;;;5031504;28;21161;-57
2023/08/31 10:46:25;;;;;;;4.67;4.37;;;16.90;99.90;;;;;;5032896;28;20583;-57
2023/08/31 10:48:54;;;;;;;4.53;4.13;;;17.00;99.90;;;;;;5032869;28;20497;-58
2023/08/31 10:51:29;;;;;;;4.30;4.00;;;17.30;99.90;;;;;;5028772;28;20561;-58
2023/08/31 10:54:13;;;;;;;4.20;3.90;;;17.50;99.90;;;;;;5034228;28;20590;-57
2023/08/31 10:56:55;;;;;;;4.80;4.50;;;17.80;99.90;;;;;;5043482;28;20585;-58
2023/08/31 10:59:24;;;;;;;4.10;3.80;;;17.90;99.90;;;;;;5034462;28;20463;-57
2023/08/31 11:01:53;;;;;;;4.13;3.80;;;17.80;99.90;;;;;;5037788;28;20894;-58
2023/08/31 11:04:22;;;;;;;4.10;3.70;;;17.80;99.90;;;;;;5035065;28;21356;-58
2023/08/31 11:07:06;;;;;;;4.10;3.80;;;17.70;99.90;;;;;;5036280;28;20495;-57
2023/08/31 11:09:36;;;;;;;3.50;3.20;;;17.60;99.90;;;;;;5040577;28;20577;-58
2023/08/31 11:12:05;;;;;;;3.50;3.20;;;17.50;99.90;;;;;;5037500;28;20816;-58
2023/08/31 11:14:33;;;;;;;3.13;2.93;;;17.70;99.90;;;;;;5035465;28;20498;-58
2023/08/31 11:17:04;;;;;;;4.00;2.73;;;17.80;99.90;;;;;;5039928;28;20466;-58
2023/08/31 11:19:35;;;;;;;2.80;2.60;;;18.00;99.90;;;;;;5037613;28;21921;-58
2023/08/31 11:22:04;;;;;;;2.93;2.63;;;18.30;99.90;;;;;;5036830;28;20462;-58
2023/08/31 11:24:33;;;;;;;3.03;2.73;;;18.50;99.90;;;;;;5033865;28;20577;-58
2023/08/31 11:27:03;;;;;;;2.67;2.27;;;18.60;99.90;;;;;;5037279;28;20474;-58
2023/08/31 11:29:31;;;;;;;2.40;2.20;;;18.60;99.90;;;;;;5040238;28;20467;-58
2023/08/31 11:32:00;;;;;;;2.20;2.10;;;18.60;99.90;;;;;;5043190;28;20886;-58
2023/08/31 11:34:28;;;;;;;3.27;1.90;;;18.40;99.90;;;;;;5041879;28;20526;-58
2023/08/31 11:36:56;;;;;;;2.80;1.80;;;18.30;99.90;;;;;;5042097;28;20553;-58
2023/08/31 11:39:25;;;;;;;1.80;1.70;;;18.20;99.90;;;;;;5039709;28;20497;-58
2023/08/31 11:41:53;;;;;;;1.90;1.40;;;18.20;99.90;;;;;;5039271;28;21020;-58
2023/08/31 11:44:23;;;;;;;2.10;1.90;;;18.10;99.90;;;;;;5038409;28;20582;-58
2023/08/31 11:46:51;;;;;;;3.23;1.50;;;18.00;99.90;;;;;;5039884;28;20644;-58
2023/08/31 11:49:20;;;;;;;1.60;1.50;;;18.10;99.90;;;;;;5042001;28;20466;-58
2023/08/31 11:51:49;;;;;;;2.40;1.80;;;18.20;99.90;;;;;;5039703;28;20471;-57
2023/08/31 11:54:19;;;;;;;1.60;1.50;;;18.40;99.90;;;;;;5036548;28;20555;-58
2023/08/31 11:56:49;;;;;;;1.53;1.43;;;18.60;99.90;;;;;;5038889;28;20569;-58
2023/08/31 11:59:18;;;;;;;1.23;1.07;;;18.70;99.90;;;;;;5041268;28;20909;-58
2023/08/31 12:01:49;;;;;;;1.83;1.57;;;18.50;99.90;;;;;;5040587;28;20528;-58
2023/08/31 12:04:22;;;;;;;0.90;0.90;;;18.50;99.90;;;;;;5041109;28;20578;-58
2023/08/31 12:06:51;;;;;;;2.50;1.43;;;18.60;99.90;;;;;;5040392;28;21010;-59
2023/08/31 12:09:20;;;;;;;1.60;1.20;;;18.90;99.90;;;;;;5028719;28;20975;-58
2023/08/31 12:11:52;;;;;;;3.30;1.43;;;18.90;99.90;;;;;;5032779;28;20632;-58
2023/08/31 12:14:20;;;;;;;1.73;1.13;;;18.90;99.90;;;;;;5039766;28;20577;-58
2023/08/31 12:16:51;;;;;;;1.10;1.00;;;18.90;99.90;;;;;;5023745;28;20597;-58
2023/08/31 12:19:19;;;;;;;1.50;1.40;;;18.90;99.90;;;;;;5028712;28;20466;-57
2023/08/31 12:21:48;;;;;;;3.10;1.37;;;19.00;99.90;;;;;;5026659;28;20494;-56
2023/08/31 12:24:16;;;;;;;2.23;1.30;;;19.00;99.90;;;;;;5029490;28;20497;-58
2023/08/31 12:26:45;;;;;;;1.17;1.07;;;19.10;99.90;;;;;;5042961;28;20505;-57
2023/08/31 12:29:13;;;;;;;1.00;0.90;;;19.10;99.90;;;;;;5037416;28;20558;-57
2023/08/31 12:31:41;;;;;;;1.43;1.07;;;19.10;99.90;;;;;;5023858;28;20520;-58
2023/08/31 12:34:10;;;;;;;2.23;1.10;;;19.00;99.90;;;;;;5041308;28;20505;-58
2023/08/31 12:36:40;;;;;;;2.47;1.30;;;18.80;99.90;;;;;;5034845;28;22536;-57
2023/08/31 12:39:10;;;;;;;2.40;1.07;;;18.60;99.90;;;;;;5018886;28;20515;-56
2023/08/31 12:41:38;;;;;;;0.80;0.80;;;18.40;99.90;;;;;;5030002;28;20470;-55
2023/08/31 12:44:07;;;;;;;1.17;0.60;;;18.30;99.90;;;;;;5034537;28;20609;-56
2023/08/31 12:46:35;;;;;;;0.77;0.70;;;18.00;99.90;;;;;;5036785;28;20494;-56
2023/08/31 12:49:04;;;;;;;1.70;0.80;;;17.70;99.90;;;;;;5037788;28;20477;-56
2023/08/31 12:51:33;;;;;;;1.03;0.70;;;17.40;99.90;;;;;;5041286;28;20477;-56
2023/08/31 12:54:01;;;;;;;1.10;0.90;;;17.10;99.90;;;;;;5038004;28;20579;-57
2023/08/31 12:56:30;;;;;;;1.00;0.60;;;16.80;99.90;;;;;;5031420;28;20494;-57
2023/08/31 12:58:58;;;;;;;0.97;0.77;;;16.60;99.90;;;;;;5030014;28;20474;-58
2023/08/31 13:01:26;;;;;;;0.83;0.60;;;16.40;99.90;;;;;;5040669;28;20506;-58